sensor_id;sensor_type;location;lat;lon;timestamp;pressure;altitude;pressure_sealevel;temperature;humidity
43934;BME280;59081;42.706;23.306;2022-12-26T00:01:52;96012.38;;;0.80;100.00
43934;BME280;59081;42.706;23.306;2022-12-26T00:04:19;96092.72;;;1.20;100.00
43934;BME280;59081;42.706;23.306;2022-12-26T00:06:45;96111.63;;;1.16;100.00
43934;BME280;59081;42.706;23.306;2022-12-26T00:09:11;96192.25;;;1.86;100.00
43934;BME280;59081;42.706;23.306;2022-12-26T00:11:39;96188.53;;;2.13;100.00
43934;BME280;59081;42.706;23.306;2022-12-26T00:14:11;96139.47;;;1.48;100.00
43934;BME280;59081;42.706;23.306;2022-12-26T00:16:39;96072.56;;;0.70;100.00
43934;BME280;59081;42.706;23.306;2022-12-26T00:19:04;96101.44;;;0.62;100.00
43934;BME280;59081;42.706;23.306;2022-12-26T00:21:33;96049.75;;;0.08;100.00
43934;BME280;59081;42.706;23.306;2022-12-26T00:23:59;96071.78;;;0.22;100.00
43934;BME280;59081;42.706;23.306;2022-12-26T00:26:26;96059.13;;;0.42;100.00
43934;BME280;59081;42.706;23.306;2022-12-26T00:28:53;96057.91;;;0.24;100.00
43934;BME280;59081;42.706;23.306;2022-12-26T00:31:22;96198.19;;;1.05;100.00
43934;BME280;59081;42.706;23.306;2022-12-26T00:33:52;96047.22;;;-0.01;100.00
43934;BME280;59081;42.706;23.306;2022-12-26T00:36:21;96197.78;;;1.03;100.00
43934;BME280;59081;42.706;23.306;2022-12-26T00:38:48;96137.56;;;0.66;100.00
43934;BME280;59081;42.706;23.306;2022-12-26T00:41:20;96127.69;;;0.74;100.00
43934;BME280;59081;42.706;23.306;2022-12-26T00:43:46;96116.22;;;0.81;100.00
43934;BME280;59081;42.706;23.306;2022-12-26T00:46:14;96040.59;;;-0.03;100.00
43934;BME280;59081;42.706;23.306;2022-12-26T00:48:40;96154.19;;;0.65;100.00
43934;BME280;59081;42.706;23.306;2022-12-26T00:51:05;96068.28;;;0.06;100.00
43934;BME280;59081;42.706;23.306;2022-12-26T00:53:34;96039.44;;;-0.18;100.00
43934;BME280;59081;42.706;23.306;2022-12-26T00:56:00;96020.41;;;-0.33;100.00
43934;BME280;59081;42.706;23.306;2022-12-26T00:58:25;96211.41;;;1.23;100.00
43934;BME280;59081;42.706;23.306;2022-12-26T01:00:51;96089.56;;;0.67;100.00
43934;BME280;59081;42.706;23.306;2022-12-26T01:03:17;96052.56;;;0.59;100.00
43934;BME280;59081;42.706;23.306;2022-12-26T01:05:46;96196.66;;;1.74;100.00
43934;BME280;59081;42.706;23.306;2022-12-26T01:08:12;96080.66;;;1.01;100.00
43934;BME280;59081;42.706;23.306;2022-12-26T01:10:41;96096.00;;;0.78;100.00
43934;BME280;59081;42.706;23.306;2022-12-26T01:13:07;96234.44;;;1.13;100.00
43934;BME280;59081;42.706;23.306;2022-12-26T01:15:33;96231.81;;;1.01;100.00
43934;BME280;59081;42.706;23.306;2022-12-26T01:17:59;96082.59;;;-0.09;100.00
43934;BME280;59081;42.706;23.306;2022-12-26T01:20:26;96118.44;;;0.00;100.00
43934;BME280;59081;42.706;23.306;2022-12-26T01:22:52;96068.28;;;-0.38;100.00
43934;BME280;59081;42.706;23.306;2022-12-26T01:25:18;96083.31;;;0.04;100.00
43934;BME280;59081;42.706;23.306;2022-12-26T01:27:43;96169.31;;;0.97;100.00
43934;BME280;59081;42.706;23.306;2022-12-26T01:30:09;96226.53;;;1.55;100.00
43934;BME280;59081;42.706;23.306;2022-12-26T01:32:35;96174.53;;;0.43;100.00
43934;BME280;59081;42.706;23.306;2022-12-26T01:35:04;96151.91;;;0.08;100.00
43934;BME280;59081;42.706;23.306;2022-12-26T01:37:30;96084.13;;;-0.52;100.00
43934;BME280;59081;42.706;23.306;2022-12-26T01:39:55;96084.78;;;-0.43;100.00
43934;BME280;59081;42.706;23.306;2022-12-26T01:42:23;96049.88;;;-0.60;100.00
43934;BME280;59081;42.706;23.306;2022-12-26T01:45:27;96225.94;;;0.83;100.00
43934;BME280;59081;42.706;23.306;2022-12-26T01:53:21;96097.44;;;-0.19;100.00
43934;BME280;59081;42.706;23.306;2022-12-26T01:55:55;96148.25;;;0.00;100.00
43934;BME280;59081;42.706;23.306;2022-12-26T01:58:32;96143.69;;;0.04;100.00
43934;BME280;59081;42.706;23.306;2022-12-26T02:01:01;96197.75;;;0.72;100.00
43934;BME280;59081;42.706;23.306;2022-12-26T02:03:29;96089.66;;;-0.20;100.00
43934;BME280;59081;42.706;23.306;2022-12-26T02:06:14;96171.59;;;0.20;100.00
43934;BME280;59081;42.706;23.306;2022-12-26T02:08:40;96053.47;;;-0.56;100.00
43934;BME280;59081;42.706;23.306;2022-12-26T02:11:26;96135.06;;;-0.14;100.00
43934;BME280;59081;42.706;23.306;2022-12-26T02:13:56;96123.72;;;-0.19;100.00
43934;BME280;59081;42.706;23.306;2022-12-26T02:16:22;96114.78;;;0.08;100.00
43934;BME280;59081;42.706;23.306;2022-12-26T02:18:49;96076.78;;;0.20;100.00
43934;BME280;59081;42.706;23.306;2022-12-26T02:24:14;96210.03;;;0.97;100.00
43934;BME280;59081;42.706;23.306;2022-12-26T02:29:21;96200.44;;;0.56;100.00
43934;BME280;59081;42.706;23.306;2022-12-26T02:34:56;96067.88;;;-0.52;100.00
43934;BME280;59081;42.706;23.306;2022-12-26T02:40:39;96203.16;;;0.56;100.00
43934;BME280;59081;42.706;23.306;2022-12-26T02:45:49;96218.00;;;0.47;100.00
43934;BME280;59081;42.706;23.306;2022-12-26T02:48:57;96138.78;;;-0.06;100.00
43934;BME280;59081;42.706;23.306;2022-12-26T02:54:42;96167.19;;;0.44;100.00
43934;BME280;59081;42.706;23.306;2022-12-26T02:57:42;96141.97;;;0.12;100.00
43934;BME280;59081;42.706;23.306;2022-12-26T03:00:39;96204.47;;;0.47;100.00
43934;BME280;59081;42.706;23.306;2022-12-26T03:03:29;96117.31;;;-0.27;100.00
43934;BME280;59081;42.706;23.306;2022-12-26T03:06:21;96200.06;;;0.42;100.00
43934;BME280;59081;42.706;23.306;2022-12-26T03:09:10;96074.84;;;0.05;100.00
43934;BME280;59081;42.706;23.306;2022-12-26T03:12:07;96072.47;;;0.19;100.00
43934;BME280;59081;42.706;23.306;2022-12-26T03:15:02;96188.19;;;0.47;100.00
43934;BME280;59081;42.706;23.306;2022-12-26T03:17:37;96218.84;;;0.35;100.00
43934;BME280;59081;42.706;23.306;2022-12-26T03:20:17;96222.84;;;0.25;100.00
43934;BME280;59081;42.706;23.306;2022-12-26T03:22:47;96091.09;;;-0.51;100.00
43934;BME280;59081;42.706;23.306;2022-12-26T03:28:03;96213.72;;;0.46;100.00
43934;BME280;59081;42.706;23.306;2022-12-26T03:30:29;96098.31;;;-0.43;100.00
43934;BME280;59081;42.706;23.306;2022-12-26T03:33:34;96081.00;;;-0.66;100.00
43934;BME280;59081;42.706;23.306;2022-12-26T03:49:15;96236.63;;;0.20;100.00
43934;BME280;59081;42.706;23.306;2022-12-26T03:52:12;96133.47;;;-0.71;100.00
43934;BME280;59081;42.706;23.306;2022-12-26T03:55:10;96184.34;;;-0.36;100.00
43934;BME280;59081;42.706;23.306;2022-12-26T04:01:19;96091.69;;;-0.57;100.00
43934;BME280;59081;42.706;23.306;2022-12-26T04:04:09;96220.38;;;-0.08;100.00
43934;BME280;59081;42.706;23.306;2022-12-26T04:07:07;96139.41;;;-0.65;100.00
43934;BME280;59081;42.706;23.306;2022-12-26T04:10:16;96124.56;;;-0.83;100.00
43934;BME280;59081;42.706;23.306;2022-12-26T04:13:21;96114.66;;;-0.91;100.00
43934;BME280;59081;42.706;23.306;2022-12-26T04:16:33;96087.69;;;-0.76;100.00
43934;BME280;59081;42.706;23.306;2022-12-26T04:25:17;96064.78;;;-1.18;100.00
43934;BME280;59081;42.706;23.306;2022-12-26T04:28:04;96139.88;;;-0.23;100.00
43934;BME280;59081;42.706;23.306;2022-12-26T04:30:59;96101.84;;;-1.07;100.00
43934;BME280;59081;42.706;23.306;2022-12-26T04:33:54;96236.91;;;-0.49;100.00
43934;BME280;59081;42.706;23.306;2022-12-26T04:36:44;96142.75;;;-1.08;100.00
43934;BME280;59081;42.706;23.306;2022-12-26T04:39:33;96250.22;;;-0.44;100.00
43934;BME280;59081;42.706;23.306;2022-12-26T04:42:20;96122.75;;;-0.79;100.00
43934;BME280;59081;42.706;23.306;2022-12-26T04:45:06;96195.88;;;-0.51;100.00
43934;BME280;59081;42.706;23.306;2022-12-26T04:47:35;96158.84;;;-0.87;100.00
43934;BME280;59081;42.706;23.306;2022-12-26T04:50:05;96168.72;;;-0.55;100.00
43934;BME280;59081;42.706;23.306;2022-12-26T04:52:38;96137.22;;;-0.87;100.00
43934;BME280;59081;42.706;23.306;2022-12-26T04:55:28;96105.44;;;-1.15;100.00
43934;BME280;59081;42.706;23.306;2022-12-26T04:58:00;96189.81;;;-0.73;100.00
43934;BME280;59081;42.706;23.306;2022-12-26T05:00:28;96192.06;;;-0.62;100.00
43934;BME280;59081;42.706;23.306;2022-12-26T05:02:57;96201.88;;;-0.58;100.00
43934;BME280;59081;42.706;23.306;2022-12-26T05:05:43;96088.31;;;-1.07;100.00
43934;BME280;59081;42.706;23.306;2022-12-26T05:11:33;96261.06;;;0.64;100.00
43934;BME280;59081;42.706;23.306;2022-12-26T05:14:00;96207.31;;;-0.18;100.00
43934;BME280;59081;42.706;23.306;2022-12-26T05:16:29;96206.34;;;-0.50;100.00
43934;BME280;59081;42.706;23.306;2022-12-26T05:19:16;96264.06;;;-0.33;100.00
43934;BME280;59081;42.706;23.306;2022-12-26T05:22:01;96209.56;;;-0.72;100.00
43934;BME280;59081;42.706;23.306;2022-12-26T05:24:46;96186.78;;;-1.08;100.00
43934;BME280;59081;42.706;23.306;2022-12-26T05:27:40;96229.34;;;-0.44;100.00
43934;BME280;59081;42.706;23.306;2022-12-26T05:30:25;96243.84;;;-0.12;100.00
43934;BME280;59081;42.706;23.306;2022-12-26T05:32:51;96156.81;;;-1.15;100.00
43934;BME280;59081;42.706;23.306;2022-12-26T05:35:35;96167.75;;;-1.23;100.00
43934;BME280;59081;42.706;23.306;2022-12-26T05:38:11;96187.25;;;-1.06;100.00
43934;BME280;59081;42.706;23.306;2022-12-26T05:40:39;96183.84;;;-1.27;100.00
43934;BME280;59081;42.706;23.306;2022-12-26T05:43:07;96274.16;;;-0.71;100.00
43934;BME280;59081;42.706;23.306;2022-12-26T05:45:33;96168.75;;;-1.16;100.00
43934;BME280;59081;42.706;23.306;2022-12-26T05:48:00;96120.97;;;-1.36;100.00
43934;BME280;59081;42.706;23.306;2022-12-26T05:50:28;96238.41;;;-0.76;100.00
43934;BME280;59081;42.706;23.306;2022-12-26T05:52:58;96110.72;;;-1.67;100.00
43934;BME280;59081;42.706;23.306;2022-12-26T05:55:26;96250.25;;;-0.81;100.00
43934;BME280;59081;42.706;23.306;2022-12-26T05:57:55;96142.34;;;-1.67;100.00
43934;BME280;59081;42.706;23.306;2022-12-26T06:00:23;96164.56;;;-1.50;100.00
43934;BME280;59081;42.706;23.306;2022-12-26T06:02:51;96164.34;;;-1.20;100.00
43934;BME280;59081;42.706;23.306;2022-12-26T06:05:16;96156.56;;;-1.46;100.00
43934;BME280;59081;42.706;23.306;2022-12-26T06:07:42;96278.31;;;-0.73;100.00
43934;BME280;59081;42.706;23.306;2022-12-26T06:10:10;96280.56;;;-0.75;100.00
43934;BME280;59081;42.706;23.306;2022-12-26T06:12:36;96288.22;;;-0.77;100.00
43934;BME280;59081;42.706;23.306;2022-12-26T06:15:22;96161.97;;;-1.58;100.00
43934;BME280;59081;42.706;23.306;2022-12-26T06:17:48;96230.72;;;-0.86;100.00
43934;BME280;59081;42.706;23.306;2022-12-26T06:20:13;96248.09;;;-0.75;100.00
43934;BME280;59081;42.706;23.306;2022-12-26T06:22:39;96183.72;;;-1.30;100.00
43934;BME280;59081;42.706;23.306;2022-12-26T06:25:05;96292.31;;;-0.71;100.00
43934;BME280;59081;42.706;23.306;2022-12-26T06:27:31;96151.81;;;-1.61;100.00
43934;BME280;59081;42.706;23.306;2022-12-26T06:29:57;96298.59;;;-0.79;100.00
43934;BME280;59081;42.706;23.306;2022-12-26T06:32:22;96276.38;;;-0.85;100.00
43934;BME280;59081;42.706;23.306;2022-12-26T06:34:48;96214.41;;;-0.90;100.00
43934;BME280;59081;42.706;23.306;2022-12-26T06:37:16;96178.13;;;-0.89;100.00
43934;BME280;59081;42.706;23.306;2022-12-26T06:39:42;96162.88;;;-1.42;100.00
43934;BME280;59081;42.706;23.306;2022-12-26T06:42:07;96126.94;;;-1.67;100.00
43934;BME280;59081;42.706;23.306;2022-12-26T06:44:36;96305.16;;;-0.56;100.00
43934;BME280;59081;42.706;23.306;2022-12-26T06:47:12;96172.56;;;-1.41;100.00
43934;BME280;59081;42.706;23.306;2022-12-26T06:49:37;96285.53;;;-0.65;100.00
43934;BME280;59081;42.706;23.306;2022-12-26T06:52:03;96165.94;;;-1.19;100.00
43934;BME280;59081;42.706;23.306;2022-12-26T06:54:29;96194.00;;;-0.75;100.00
43934;BME280;59081;42.706;23.306;2022-12-26T06:56:54;96193.56;;;-0.89;100.00
43934;BME280;59081;42.706;23.306;2022-12-26T06:59:20;96293.41;;;-0.23;100.00
43934;BME280;59081;42.706;23.306;2022-12-26T07:01:48;96251.25;;;-0.37;100.00
43934;BME280;59081;42.706;23.306;2022-12-26T07:04:14;96202.53;;;-0.61;100.00
43934;BME280;59081;42.706;23.306;2022-12-26T07:06:40;96170.53;;;-0.59;100.00
43934;BME280;59081;42.706;23.306;2022-12-26T07:09:09;96165.03;;;-0.35;100.00
43934;BME280;59081;42.706;23.306;2022-12-26T07:11:41;96190.84;;;-0.25;100.00
43934;BME280;59081;42.706;23.306;2022-12-26T07:14:07;96243.91;;;0.16;100.00
43934;BME280;59081;42.706;23.306;2022-12-26T07:16:37;96202.59;;;-0.21;100.00
43934;BME280;59081;42.706;23.306;2022-12-26T07:19:03;96213.72;;;-0.10;100.00
43934;BME280;59081;42.706;23.306;2022-12-26T07:21:29;96268.72;;;0.46;100.00
43934;BME280;59081;42.706;23.306;2022-12-26T07:23:55;96293.16;;;1.05;100.00
43934;BME280;59081;42.706;23.306;2022-12-26T07:26:22;96184.53;;;0.55;100.00
43934;BME280;59081;42.706;23.306;2022-12-26T07:28:47;96150.00;;;0.08;100.00
43934;BME280;59081;42.706;23.306;2022-12-26T07:31:17;96231.47;;;0.43;100.00
43934;BME280;59081;42.706;23.306;2022-12-26T07:33:47;96199.44;;;0.33;100.00
43934;BME280;59081;42.706;23.306;2022-12-26T07:36:13;96321.03;;;1.18;100.00
43934;BME280;59081;42.706;23.306;2022-12-26T07:38:47;96195.09;;;0.44;100.00
43934;BME280;59081;42.706;23.306;2022-12-26T07:41:18;96214.56;;;0.93;100.00
43934;BME280;59081;42.706;23.306;2022-12-26T07:44:02;96238.81;;;1.18;100.00
43934;BME280;59081;42.706;23.306;2022-12-26T07:46:30;96327.94;;;1.79;100.00
43934;BME280;59081;42.706;23.306;2022-12-26T07:48:56;96175.88;;;0.96;100.00
43934;BME280;59081;42.706;23.306;2022-12-26T07:51:21;96241.19;;;1.35;100.00
43934;BME280;59081;42.706;23.306;2022-12-26T07:53:50;96253.94;;;1.50;100.00
43934;BME280;59081;42.706;23.306;2022-12-26T07:56:15;96153.03;;;1.13;100.00
43934;BME280;59081;42.706;23.306;2022-12-26T07:58:41;96320.63;;;2.33;100.00
43934;BME280;59081;42.706;23.306;2022-12-26T08:01:07;96195.16;;;1.42;100.00
43934;BME280;59081;42.706;23.306;2022-12-26T08:03:33;96245.16;;;1.72;100.00
43934;BME280;59081;42.706;23.306;2022-12-26T08:05:59;96226.31;;;1.64;100.00
43934;BME280;59081;42.706;23.306;2022-12-26T08:08:25;96260.63;;;1.88;100.00
43934;BME280;59081;42.706;23.306;2022-12-26T08:11:01;96307.03;;;2.33;100.00
43934;BME280;59081;42.706;23.306;2022-12-26T08:13:29;96201.06;;;1.98;100.00
43934;BME280;59081;42.706;23.306;2022-12-26T08:15:55;96198.63;;;1.93;100.00
43934;BME280;59081;42.706;23.306;2022-12-26T08:18:21;96178.16;;;1.80;100.00
43934;BME280;59081;42.706;23.306;2022-12-26T08:20:47;96127.38;;;1.46;100.00
43934;BME280;59081;42.706;23.306;2022-12-26T08:23:13;96208.78;;;1.96;100.00
43934;BME280;59081;42.706;23.306;2022-12-26T08:25:39;96189.91;;;1.84;100.00
43934;BME280;59081;42.706;23.306;2022-12-26T08:28:04;96330.84;;;2.98;100.00
43934;BME280;59081;42.706;23.306;2022-12-26T08:30:30;96159.50;;;2.17;100.00
43934;BME280;59081;42.706;23.306;2022-12-26T08:32:59;96289.69;;;2.80;100.00
43934;BME280;59081;42.706;23.306;2022-12-26T08:35:24;96290.28;;;2.70;100.00
43934;BME280;59081;42.706;23.306;2022-12-26T08:37:50;96138.00;;;1.70;100.00
43934;BME280;59081;42.706;23.306;2022-12-26T08:40:16;96227.41;;;2.33;100.00
43934;BME280;59081;42.706;23.306;2022-12-26T08:42:41;96187.84;;;2.16;100.00
43934;BME280;59081;42.706;23.306;2022-12-26T08:45:07;96210.13;;;2.87;100.00
43934;BME280;59081;42.706;23.306;2022-12-26T08:47:33;96285.50;;;3.51;98.16
43934;BME280;59081;42.706;23.306;2022-12-26T08:49:58;96188.06;;;2.69;98.89
43934;BME280;59081;42.706;23.306;2022-12-26T08:52:24;96262.19;;;3.27;98.98
43934;BME280;59081;42.706;23.306;2022-12-26T08:54:50;96303.56;;;3.59;98.59
43934;BME280;59081;42.706;23.306;2022-12-26T08:57:15;96136.66;;;2.41;99.26
43934;BME280;59081;42.706;23.306;2022-12-26T08:59:41;96201.34;;;3.20;97.02
43934;BME280;59081;42.706;23.306;2022-12-26T09:02:09;96303.00;;;4.26;95.21
43934;BME280;59081;42.706;23.306;2022-12-26T09:04:35;96197.75;;;3.65;92.63
43934;BME280;59081;42.706;23.306;2022-12-26T09:07:01;96236.53;;;4.07;91.17
43934;BME280;59081;42.706;23.306;2022-12-26T09:09:29;96136.94;;;3.31;91.38
43934;BME280;59081;42.706;23.306;2022-12-26T09:11:55;96267.72;;;4.10;91.77
43934;BME280;59081;42.706;23.306;2022-12-26T09:14:20;96223.84;;;3.92;91.61
43934;BME280;59081;42.706;23.306;2022-12-26T09:16:46;96201.63;;;4.20;89.02
43934;BME280;59081;42.706;23.306;2022-12-26T09:19:13;96302.22;;;5.25;85.45
43934;BME280;59081;42.706;23.306;2022-12-26T09:21:42;96165.81;;;3.92;88.21
43934;BME280;59081;42.706;23.306;2022-12-26T09:24:13;96186.09;;;4.24;87.25
43934;BME280;59081;42.706;23.306;2022-12-26T09:26:39;96206.91;;;4.73;86.66
43934;BME280;59081;42.706;23.306;2022-12-26T09:29:04;96141.59;;;4.94;82.72
43934;BME280;59081;42.706;23.306;2022-12-26T09:31:32;96231.63;;;5.28;83.24
43934;BME280;59081;42.706;23.306;2022-12-26T09:34:00;96193.22;;;4.69;84.24
43934;BME280;59081;42.706;23.306;2022-12-26T09:36:29;96167.41;;;4.60;86.04
43934;BME280;59081;42.706;23.306;2022-12-26T09:38:56;96201.41;;;5.54;83.22
43934;BME280;59081;42.706;23.306;2022-12-26T09:41:37;96277.53;;;6.83;78.81
43934;BME280;59081;42.706;23.306;2022-12-26T09:49:55;96257.72;;;7.43;71.80
43934;BME280;59081;42.706;23.306;2022-12-26T09:57:57;96239.03;;;8.85;65.24
43934;BME280;59081;42.706;23.306;2022-12-26T10:00:30;96196.84;;;8.40;65.76
43934;BME280;59081;42.706;23.306;2022-12-26T10:02:58;96238.19;;;8.95;65.57
43934;BME280;59081;42.706;23.306;2022-12-26T10:05:31;96207.88;;;9.13;64.07
43934;BME280;59081;42.706;23.306;2022-12-26T10:08:26;96217.63;;;9.73;62.92
43934;BME280;59081;42.706;23.306;2022-12-26T10:11:03;96186.25;;;9.67;59.75
43934;BME280;59081;42.706;23.306;2022-12-26T10:13:47;96216.06;;;10.13;59.21
43934;BME280;59081;42.706;23.306;2022-12-26T10:16:22;96243.97;;;10.56;58.63
43934;BME280;59081;42.706;23.306;2022-12-26T10:22:20;96177.88;;;10.83;58.07
43934;BME280;59081;42.706;23.306;2022-12-26T10:24:48;96221.34;;;11.56;56.24
43934;BME280;59081;42.706;23.306;2022-12-26T10:27:16;96188.00;;;11.70;55.67
43934;BME280;59081;42.706;23.306;2022-12-26T10:29:54;96103.44;;;11.10;54.11
43934;BME280;59081;42.706;23.306;2022-12-26T10:32:27;96133.72;;;11.40;54.19
43934;BME280;59081;42.706;23.306;2022-12-26T10:34:55;96180.16;;;11.92;53.47
43934;BME280;59081;42.706;23.306;2022-12-26T10:37:30;96213.50;;;12.64;52.72
43934;BME280;59081;42.706;23.306;2022-12-26T10:40:20;96217.81;;;13.05;50.79
43934;BME280;59081;42.706;23.306;2022-12-26T10:42:53;96091.00;;;12.31;49.15
43934;BME280;59081;42.706;23.306;2022-12-26T10:47:51;96073.53;;;12.74;49.03
43934;BME280;59081;42.706;23.306;2022-12-26T10:50:26;96166.38;;;13.59;48.27
43934;BME280;59081;42.706;23.306;2022-12-26T10:52:52;96198.31;;;13.12;47.64
43934;BME280;59081;42.706;23.306;2022-12-26T10:55:19;96053.88;;;11.30;50.36
43934;BME280;59081;42.706;23.306;2022-12-26T10:57:51;96196.38;;;12.53;51.19
43934;BME280;59081;42.706;23.306;2022-12-26T11:00:20;96049.81;;;12.20;49.63
43934;BME280;59081;42.706;23.306;2022-12-26T11:03:07;96190.25;;;12.81;49.41
43934;BME280;59081;42.706;23.306;2022-12-26T11:05:39;96084.97;;;12.56;49.23
43934;BME280;59081;42.706;23.306;2022-12-26T11:08:24;96178.84;;;13.68;48.43
43934;BME280;59081;42.706;23.306;2022-12-26T11:13:49;96132.31;;;13.46;47.25
43934;BME280;59081;42.706;23.306;2022-12-26T11:16:37;96160.16;;;13.55;46.62
43934;BME280;59081;42.706;23.306;2022-12-26T11:19:04;96040.94;;;12.65;47.83
43934;BME280;59081;42.706;23.306;2022-12-26T11:21:31;96147.50;;;13.22;46.94
43934;BME280;59081;42.706;23.306;2022-12-26T11:26:31;96166.28;;;12.95;49.39
43934;BME280;59081;42.706;23.306;2022-12-26T11:29:20;96026.94;;;12.56;47.97
43934;BME280;59081;42.706;23.306;2022-12-26T11:32:02;96157.41;;;14.46;45.54
43934;BME280;59081;42.706;23.306;2022-12-26T11:34:36;96001.97;;;13.70;44.77
43934;BME280;59081;42.706;23.306;2022-12-26T11:37:04;96048.16;;;14.31;43.01
43934;BME280;59081;42.706;23.306;2022-12-26T11:39:36;96010.66;;;14.26;42.83
43934;BME280;59081;42.706;23.306;2022-12-26T11:42:16;96138.88;;;15.48;42.04
43934;BME280;59081;42.706;23.306;2022-12-26T11:44:45;96071.41;;;15.00;41.76
43934;BME280;59081;42.706;23.306;2022-12-26T11:47:18;96110.31;;;15.73;41.42
43934;BME280;59081;42.706;23.306;2022-12-26T11:49:53;96129.78;;;14.96;42.33
43934;BME280;59081;42.706;23.306;2022-12-26T11:52:51;96124.09;;;15.51;42.35
43934;BME280;59081;42.706;23.306;2022-12-26T11:55:37;96066.44;;;15.68;40.66
43934;BME280;59081;42.706;23.306;2022-12-26T11:58:20;96061.81;;;15.52;40.02
43934;BME280;59081;42.706;23.306;2022-12-26T12:03:21;95988.34;;;13.63;42.21
43934;BME280;59081;42.706;23.306;2022-12-26T12:06:29;96047.56;;;14.52;41.50
43934;BME280;59081;42.706;23.306;2022-12-26T12:12:21;96007.09;;;14.25;42.68
43934;BME280;59081;42.706;23.306;2022-12-26T12:15:36;96067.81;;;15.25;40.85
43934;BME280;59081;42.706;23.306;2022-12-26T12:18:01;96072.84;;;14.79;42.28
43934;BME280;59081;42.706;23.306;2022-12-26T12:23:38;96051.25;;;15.59;40.03
43934;BME280;59081;42.706;23.306;2022-12-26T12:26:11;96028.84;;;16.10;39.14
43934;BME280;59081;42.706;23.306;2022-12-26T12:31:39;96049.59;;;17.60;36.17
43934;BME280;59081;42.706;23.306;2022-12-26T12:34:30;96090.53;;;18.00;35.72
43934;BME280;59081;42.706;23.306;2022-12-26T12:37:15;96096.25;;;17.96;35.57
43934;BME280;59081;42.706;23.306;2022-12-26T12:40:14;96090.91;;;17.13;37.26
43934;BME280;59081;42.706;23.306;2022-12-26T12:42:56;96023.97;;;16.76;37.07
43934;BME280;59081;42.706;23.306;2022-12-26T12:45:37;96070.22;;;17.14;36.79
43934;BME280;59081;42.706;23.306;2022-12-26T12:56:31;96090.13;;;17.61;35.95
43934;BME280;59081;42.706;23.306;2022-12-26T13:01:44;96053.75;;;17.47;36.23
43934;BME280;59081;42.706;23.306;2022-12-26T13:04:28;96016.78;;;16.97;36.42
43934;BME280;59081;42.706;23.306;2022-12-26T13:06:59;96086.94;;;17.90;35.98
43934;BME280;59081;42.706;23.306;2022-12-26T13:09:46;96025.94;;;17.07;36.50
43934;BME280;59081;42.706;23.306;2022-12-26T13:12:45;96025.75;;;16.92;36.55
43934;BME280;59081;42.706;23.306;2022-12-26T13:15:31;96076.06;;;17.16;36.73
43934;BME280;59081;42.706;23.306;2022-12-26T13:18:11;96032.34;;;16.85;37.00
43934;BME280;59081;42.706;23.306;2022-12-26T13:21:04;96063.47;;;17.51;36.07
43934;BME280;59081;42.706;23.306;2022-12-26T13:24:33;95994.28;;;17.22;35.68
43934;BME280;59081;42.706;23.306;2022-12-26T13:31:57;95971.75;;;15.06;39.00
43934;BME280;59081;42.706;23.306;2022-12-26T13:34:24;95979.44;;;15.36;38.87
43934;BME280;59081;42.706;23.306;2022-12-26T13:36:54;95995.47;;;15.66;38.83
43934;BME280;59081;42.706;23.306;2022-12-26T13:44:37;96076.59;;;16.18;38.91
43934;BME280;59081;42.706;23.306;2022-12-26T13:47:36;96052.06;;;15.82;39.22
43934;BME280;59081;42.706;23.306;2022-12-26T13:53:38;96076.44;;;15.65;40.33
43934;BME280;59081;42.706;23.306;2022-12-26T13:56:48;96022.38;;;14.72;41.25
43934;BME280;59081;42.706;23.306;2022-12-26T13:59:27;96086.22;;;14.43;42.98
43934;BME280;59081;42.706;23.306;2022-12-26T14:13:45;96079.72;;;13.46;46.54
43934;BME280;59081;42.706;23.306;2022-12-26T14:19:15;96045.13;;;13.06;46.93
43934;BME280;59081;42.706;23.306;2022-12-26T14:24:31;96014.94;;;12.63;47.87
43934;BME280;59081;42.706;23.306;2022-12-26T14:30:18;96006.03;;;12.19;48.05
43934;BME280;59081;42.706;23.306;2022-12-26T14:33:00;96028.00;;;12.26;48.39
43934;BME280;59081;42.706;23.306;2022-12-26T14:35:36;96079.34;;;12.04;50.02
43934;BME280;59081;42.706;23.306;2022-12-26T14:41:04;96082.09;;;11.84;51.21
43934;BME280;59081;42.706;23.306;2022-12-26T14:43:36;96064.00;;;11.60;51.26
43934;BME280;59081;42.706;23.306;2022-12-26T14:46:10;96003.84;;;10.85;52.17
43934;BME280;59081;42.706;23.306;2022-12-26T14:48:54;96089.69;;;11.33;52.50
43934;BME280;59081;42.706;23.306;2022-12-26T14:54:12;96024.75;;;10.82;52.63
43934;BME280;59081;42.706;23.306;2022-12-26T14:56:41;96096.56;;;11.22;53.13
43934;BME280;59081;42.706;23.306;2022-12-26T15:02:05;96062.50;;;10.85;54.18
43934;BME280;59081;42.706;23.306;2022-12-26T15:04:55;96087.03;;;10.76;55.02
43934;BME280;59081;42.706;23.306;2022-12-26T15:13:23;96079.50;;;10.53;56.25
43934;BME280;59081;42.706;23.306;2022-12-26T15:19:10;96062.31;;;10.42;56.89
43934;BME280;59081;42.706;23.306;2022-12-26T15:35:57;95938.28;;;8.97;59.04
43934;BME280;59081;42.706;23.306;2022-12-26T15:39:10;95981.56;;;9.23;59.11
43934;BME280;59081;42.706;23.306;2022-12-26T15:41:49;96060.47;;;9.67;59.50
43934;BME280;59081;42.706;23.306;2022-12-26T15:44:44;96069.97;;;9.59;60.94
43934;BME280;59081;42.706;23.306;2022-12-26T15:53:03;96068.63;;;9.37;62.26
43934;BME280;59081;42.706;23.306;2022-12-26T15:55:55;96000.66;;;7.82;65.94
43934;BME280;59081;42.706;23.306;2022-12-26T16:01:03;96039.56;;;6.07;78.71
43934;BME280;59081;42.706;23.306;2022-12-26T16:03:46;95916.28;;;5.18;80.60
43934;BME280;59081;42.706;23.306;2022-12-26T16:09:26;96064.81;;;5.68;84.34
43934;BME280;59081;42.706;23.306;2022-12-26T16:11:59;96102.97;;;6.30;83.00
43934;BME280;59081;42.706;23.306;2022-12-26T16:14:34;95937.47;;;4.66;85.83
43934;BME280;59081;42.706;23.306;2022-12-26T16:17:16;96061.91;;;5.33;87.31
43934;BME280;59081;42.706;23.306;2022-12-26T16:19:44;96114.66;;;5.44;88.94